Карточка аэропорта UAKK

Внимание!
Информация на этой странице в стадии наполнения.
Если вы не увидели какой-то информации, или заметили неточность - пожалуйста сообщите нам!
Спасибо!
Команда RU-STAFF
Название аэропортаКараганда
Название аэропорта (англ.)Karaganda
Превышение1768 ft. (538.9 m.)
Координаты49°40.302', 73°20.118'
Высота перехода10000ft
Эшелон переходаFL120, QNH<733:FL130
Коды ответчика0630-0637, 7220-7227
Зона ОрВДАстана РПИ (UACN)
Данные METARUAKK 250300Z 06003MPS 030V110 9000 BKN008 20/17 Q1004 NOSIG RMK QFE706/0942
Проноз погоды (TAF)UAKK 250215Z 2502/2524 07005MPS 9999 SCT020 BKN040 TX31/2509Z TN18/2523Z TEMPO 2502/2506 VRB02MPS 5000 BR BKN007 BKN011 BECMG 2506/2508 18008MPS TEMPO 2506/2512 07005MPS 5000 -SHRA BKN030CB
NOTAMshow/hide NOTAM
AWOS   TABLE

Информация о ВПП

ВПП Длина ВПП (м.) Покрытие Курс ВПП Частота ILS
233601Железобетон230111.7
053601Железобетон50109.9

Диспетчерские позиции




Спутниковое изображение